createdAt,value
2019-05-11T00:02:00.546Z,7.35
2019-05-11T00:04:29.273Z,8.53
2019-05-11T00:06:57.935Z,7.47
2019-05-11T00:09:26.597Z,8.20
2019-05-11T00:11:55.407Z,9.70
2019-05-11T00:14:24.054Z,9.00
2019-05-11T00:16:52.718Z,9.20
2019-05-11T00:19:21.447Z,10.08
2019-05-11T00:21:50.113Z,8.68
2019-05-11T00:24:18.771Z,10.55
2019-05-11T00:26:47.489Z,9.95
2019-05-11T00:29:16.146Z,9.25
2019-05-11T00:31:44.802Z,11.20
2019-05-11T00:34:13.462Z,10.23
2019-05-11T00:36:42.126Z,13.18
2019-05-11T00:39:10.814Z,11.00
2019-05-11T00:41:39.559Z,11.30
2019-05-11T00:44:08.284Z,10.98
2019-05-11T00:46:36.997Z,11.38
2019-05-11T00:49:05.663Z,10.43
2019-05-11T00:51:34.390Z,11.35
2019-05-11T00:54:03.045Z,10.65
2019-05-11T00:56:31.843Z,10.65
2019-05-11T00:59:00.503Z,11.60
2019-05-11T01:01:29.180Z,10.90
2019-05-11T01:03:57.834Z,10.68
2019-05-11T01:06:26.500Z,11.80
2019-05-11T01:08:55.281Z,11.18
2019-05-11T01:11:23.994Z,10.55
2019-05-11T01:13:52.758Z,11.93
2019-05-11T01:16:21.402Z,11.93
2019-05-11T01:18:50.071Z,10.53
2019-05-11T01:21:18.722Z,9.88
2019-05-11T01:23:47.459Z,11.22
2019-05-11T01:26:16.113Z,10.28
2019-05-11T01:28:44.784Z,10.70
2019-05-11T01:31:13.425Z,11.45
2019-05-11T01:33:42.085Z,12.55
2019-05-11T01:36:10.746Z,11.73
2019-05-11T01:38:39.476Z,11.22
2019-05-11T01:41:08.136Z,12.28
2019-05-11T01:43:36.804Z,10.75
2019-05-11T01:46:05.454Z,10.98
2019-05-11T01:48:34.184Z,11.48
2019-05-11T01:51:02.837Z,11.18
2019-05-11T01:53:31.499Z,11.55
2019-05-11T01:56:00.153Z,11.30
2019-05-11T01:58:28.836Z,12.82
2019-05-11T02:00:57.488Z,12.47
2019-05-11T02:03:26.146Z,11.97
2019-05-11T02:05:54.815Z,12.58
2019-05-11T02:08:23.535Z,12.80
2019-05-11T02:10:52.203Z,13.93
2019-05-11T02:13:21.795Z,12.58
2019-05-11T02:15:50.460Z,14.35
2019-05-11T02:18:19.108Z,12.98
2019-05-11T02:20:47.780Z,13.10
2019-05-11T02:23:16.430Z,14.78
2019-05-11T02:25:45.250Z,12.98
2019-05-11T02:28:13.939Z,13.85
2019-05-11T02:30:42.599Z,14.25
2019-05-11T02:33:11.251Z,13.78
2019-05-11T02:35:40.288Z,14.53
2019-05-11T02:38:08.942Z,16.82
2019-05-11T02:40:37.606Z,15.50
2019-05-11T02:43:06.329Z,15.15
2019-05-11T02:45:38.306Z,16.30
2019-05-11T02:48:07.023Z,17.37
2019-05-11T02:50:37.520Z,17.73
2019-05-11T02:53:07.411Z,18.77
2019-05-11T02:55:36.903Z,18.35
2019-05-11T02:58:07.606Z,16.23
2019-05-11T03:00:41.347Z,14.13
2019-05-11T03:03:10.079Z,16.23
2019-05-11T03:05:38.903Z,15.35
2019-05-11T03:08:07.702Z,15.30
2019-05-11T03:10:36.440Z,16.85
2019-05-11T03:13:05.238Z,15.53
2019-05-11T03:15:33.942Z,12.85
2019-05-11T03:18:02.725Z,14.73
2019-05-11T03:20:31.528Z,14.15
2019-05-11T03:23:00.194Z,15.95
2019-05-11T03:25:29.044Z,16.70
2019-05-11T03:27:57.677Z,16.07
2019-05-11T03:30:26.343Z,15.95
2019-05-11T03:32:55.070Z,13.78
2019-05-11T03:35:23.801Z,15.95
2019-05-11T03:37:52.445Z,14.13
2019-05-11T03:40:21.120Z,14.65
2019-05-11T03:42:49.767Z,12.98
2019-05-11T03:45:18.507Z,13.20
2019-05-11T03:47:47.171Z,13.30
2019-05-11T03:50:16.192Z,13.72
2019-05-11T03:52:44.834Z,13.75
2019-05-11T03:55:16.821Z,13.85
2019-05-11T03:57:45.470Z,12.47
2019-05-11T04:00:14.877Z,13.20
2019-05-11T04:02:43.638Z,13.08
2019-05-11T04:05:12.398Z,14.18
2019-05-11T04:07:41.048Z,13.60
2019-05-11T04:10:09.835Z,13.38
2019-05-11T04:12:38.509Z,14.73
2019-05-11T04:15:08.068Z,13.78
2019-05-11T04:17:36.749Z,13.43
2019-05-11T04:20:06.325Z,13.93
2019-05-11T04:22:35.072Z,13.43
2019-05-11T04:25:04.973Z,12.15
2019-05-11T04:27:33.623Z,12.10
2019-05-11T04:30:02.356Z,12.07
2019-05-11T04:32:31.040Z,10.95
2019-05-11T04:34:59.759Z,12.45
2019-05-11T04:37:28.439Z,12.82
2019-05-11T04:39:57.083Z,11.70
2019-05-11T04:42:25.738Z,12.98
2019-05-11T04:44:54.399Z,11.43
2019-05-11T04:47:23.061Z,12.00
2019-05-11T04:49:51.719Z,11.28
2019-05-11T04:52:20.395Z,11.48
2019-05-11T04:54:49.047Z,12.15
2019-05-11T04:57:17.711Z,13.45
2019-05-11T04:59:46.367Z,12.03
2019-05-11T05:02:16.876Z,10.82
2019-05-11T05:04:45.540Z,11.43
2019-05-11T05:07:16.572Z,12.40
2019-05-11T05:09:44.736Z,11.68
2019-05-11T05:12:14.233Z,12.47
2019-05-11T05:14:43.942Z,11.85
2019-05-11T05:17:12.603Z,13.48
2019-05-11T05:19:41.254Z,11.83
2019-05-11T05:22:10.279Z,12.07
2019-05-11T05:24:38.985Z,13.58
2019-05-11T05:27:07.644Z,13.60
2019-05-11T05:29:36.295Z,11.73
2019-05-11T05:32:05.129Z,11.85
2019-05-11T05:34:33.791Z,11.43
2019-05-11T05:37:02.434Z,11.65
2019-05-11T05:39:31.158Z,12.47
2019-05-11T05:41:59.889Z,11.78
2019-05-11T05:44:28.555Z,12.73
2019-05-11T05:46:57.283Z,13.38
2019-05-11T05:49:25.957Z,12.90
2019-05-11T05:51:58.013Z,13.15
2019-05-11T05:54:24.930Z,12.25
2019-05-11T05:56:53.654Z,11.55
2019-05-11T05:59:22.375Z,12.13
2019-05-11T06:01:51.090Z,11.83
2019-05-11T06:04:19.817Z,11.93
2019-05-11T06:06:48.478Z,11.75
2019-05-11T06:09:17.146Z,10.75
2019-05-11T06:11:45.877Z,11.10
2019-05-11T06:14:14.621Z,10.63
2019-05-11T06:16:43.278Z,9.95
2019-05-11T06:19:11.926Z,10.18
2019-05-11T06:21:40.588Z,9.63
2019-05-11T06:24:09.249Z,9.88
2019-05-11T06:26:37.906Z,10.50
2019-05-11T06:29:06.561Z,10.60
2019-05-11T06:31:35.897Z,10.45
2019-05-11T06:34:04.627Z,9.90
2019-05-11T06:36:33.302Z,9.75
2019-05-11T06:39:01.943Z,8.55
2019-05-11T06:41:30.681Z,8.13
2019-05-11T06:44:01.924Z,7.45
2019-05-11T06:46:29.743Z,7.30
2019-05-11T06:48:58.403Z,6.65
2019-05-11T06:51:27.202Z,5.92
2019-05-11T06:53:55.970Z,5.45
2019-05-11T06:56:24.661Z,6.15
2019-05-11T06:58:53.308Z,4.97
2019-05-11T07:01:22.125Z,5.05
2019-05-11T07:03:50.881Z,4.17
2019-05-11T07:06:19.768Z,4.22
2019-05-11T07:08:48.438Z,3.83
2019-05-11T07:11:17.192Z,3.80
2019-05-11T07:13:45.920Z,3.02
2019-05-11T07:16:14.623Z,2.55
2019-05-11T07:18:43.294Z,3.02
2019-05-11T07:21:11.957Z,2.67
2019-05-11T07:23:40.612Z,3.08
2019-05-11T07:26:09.254Z,3.42
2019-05-11T07:28:37.924Z,4.92
2019-05-11T07:31:06.640Z,3.55
2019-05-11T07:33:35.332Z,2.92
2019-05-11T07:36:04.047Z,3.02
2019-05-11T07:38:32.772Z,3.47
2019-05-11T07:41:01.540Z,3.20
2019-05-11T07:43:30.259Z,3.33
2019-05-11T07:45:58.926Z,3.20
2019-05-11T07:48:28.003Z,3.12
2019-05-11T07:50:58.392Z,3.02
2019-05-11T07:53:27.954Z,3.15
2019-05-11T07:55:57.711Z,2.85
2019-05-11T07:58:28.485Z,2.72
2019-05-11T08:00:58.198Z,3.27
2019-05-11T08:03:28.361Z,2.80
2019-05-11T08:05:58.240Z,3.42
2019-05-11T08:08:28.318Z,3.20
2019-05-11T08:10:58.619Z,4.05
2019-05-11T08:13:28.249Z,2.80
2019-05-11T08:15:57.815Z,3.20
2019-05-11T08:18:28.253Z,3.37
2019-05-11T08:20:58.265Z,2.67
2019-05-11T08:23:28.501Z,3.50
2019-05-11T08:25:58.060Z,2.70
2019-05-11T08:28:28.766Z,3.87
2019-05-11T08:30:58.011Z,2.85
2019-05-11T08:33:28.421Z,3.27
2019-05-11T08:35:58.319Z,3.02
2019-05-11T08:38:28.514Z,3.35
2019-05-11T08:40:59.052Z,3.52
2019-05-11T08:43:28.549Z,3.10
2019-05-11T08:45:57.973Z,2.33
2019-05-11T08:48:28.341Z,3.22
2019-05-11T08:50:58.255Z,2.20
2019-05-11T08:53:28.435Z,2.87
2019-05-11T08:55:58.807Z,4.10
2019-05-11T08:58:27.907Z,2.62
2019-05-11T09:00:58.315Z,2.87
2019-05-11T09:03:28.426Z,2.25
2019-05-11T09:05:57.959Z,3.92
2019-05-11T09:08:28.236Z,2.40
2019-05-11T09:10:58.188Z,2.05
2019-05-11T09:13:27.929Z,2.27
2019-05-11T09:15:58.843Z,3.12
2019-05-11T09:18:28.004Z,2.62
2019-05-11T09:20:57.718Z,2.70
2019-05-11T09:23:34.737Z,2.35
2019-05-11T09:25:58.366Z,3.20
2019-05-11T09:28:29.391Z,2.58
2019-05-11T09:30:57.918Z,3.75
2019-05-11T09:33:28.306Z,3.25
2019-05-11T09:35:58.403Z,3.45
2019-05-11T09:38:27.841Z,2.65
2019-05-11T09:40:58.579Z,3.33
2019-05-11T09:43:28.358Z,2.35
2019-05-11T09:45:58.226Z,2.85
2019-05-11T09:48:28.365Z,3.58
2019-05-11T09:50:58.763Z,2.87
2019-05-11T09:53:28.289Z,2.72
2019-05-11T09:55:58.724Z,3.00
2019-05-11T09:58:28.127Z,2.42
2019-05-11T10:00:58.633Z,2.10
2019-05-11T10:03:28.176Z,2.22
2019-05-11T10:05:57.973Z,3.05
2019-05-11T10:08:28.724Z,2.98
2019-05-11T10:10:58.051Z,3.05
2019-05-11T10:13:27.805Z,2.47
2019-05-11T10:16:04.588Z,2.55
2019-05-11T10:18:28.162Z,2.20
2019-05-11T10:20:58.669Z,2.35
2019-05-11T10:23:27.956Z,3.12
2019-05-11T10:25:58.572Z,3.30
2019-05-11T10:28:28.439Z,3.10
2019-05-11T10:30:57.922Z,3.02
2019-05-11T10:33:28.122Z,2.45
2019-05-11T10:35:58.804Z,3.15
2019-05-11T10:38:28.517Z,2.20
2019-05-11T10:40:58.197Z,3.15
2019-05-11T10:43:28.834Z,2.67
2019-05-11T10:45:58.785Z,3.10
2019-05-11T10:48:28.174Z,2.62
2019-05-11T10:50:57.491Z,3.17
2019-05-11T10:53:27.905Z,3.70
2019-05-11T10:55:58.149Z,3.22
2019-05-11T10:58:28.509Z,2.80
2019-05-11T11:00:58.233Z,3.12
2019-05-11T11:03:28.420Z,3.58
2019-05-11T11:05:58.065Z,3.58
2019-05-11T11:08:27.877Z,3.27
2019-05-11T11:10:58.591Z,3.12
2019-05-11T11:13:28.079Z,3.42
2019-05-11T11:15:58.204Z,3.08
2019-05-11T11:18:28.768Z,3.17
2019-05-11T11:20:58.070Z,3.15
2019-05-11T11:23:28.478Z,3.90
2019-05-11T11:25:58.563Z,2.95
2019-05-11T11:28:28.049Z,4.00
2019-05-11T11:30:58.477Z,3.17
2019-05-11T11:33:27.782Z,2.95
2019-05-11T11:35:58.021Z,4.00
2019-05-11T11:38:28.687Z,3.65
2019-05-11T11:40:59.359Z,3.67
2019-05-11T11:43:28.757Z,4.15
2019-05-11T11:45:58.083Z,4.62
2019-05-11T11:48:28.562Z,4.60
2019-05-11T11:50:58.539Z,3.85
2019-05-11T11:53:27.917Z,4.72
2019-05-11T11:55:58.747Z,4.37
2019-05-11T11:58:27.733Z,4.15
2019-05-11T12:00:58.699Z,4.08
2019-05-11T12:03:27.689Z,4.08
2019-05-11T12:05:58.146Z,3.80
2019-05-11T12:08:28.200Z,4.72
2019-05-11T12:10:58.864Z,4.20
2019-05-11T12:13:29.765Z,3.80
2019-05-11T12:15:58.503Z,4.08
2019-05-11T12:18:28.630Z,4.40
2019-05-11T12:20:58.606Z,5.75
2019-05-11T12:23:28.511Z,4.60
2019-05-11T12:25:58.038Z,4.12
2019-05-11T12:28:27.674Z,4.17
2019-05-11T12:30:58.488Z,5.12
2019-05-11T12:33:27.973Z,5.72
2019-05-11T12:35:58.632Z,4.60
2019-05-11T12:38:27.672Z,4.03
2019-05-11T12:40:57.943Z,3.65
2019-05-11T12:43:27.736Z,3.92
2019-05-11T12:45:58.547Z,3.62
2019-05-11T12:48:28.512Z,3.27
2019-05-11T12:50:58.832Z,3.98
2019-05-11T12:53:28.056Z,3.55
2019-05-11T12:55:58.826Z,3.60
2019-05-11T12:58:28.128Z,4.33
2019-05-11T13:00:58.549Z,4.28
2019-05-11T13:03:27.889Z,4.58
2019-05-11T13:05:58.422Z,5.40
2019-05-11T13:08:27.738Z,4.97
2019-05-11T13:10:58.419Z,4.80
2019-05-11T13:13:28.942Z,5.20
2019-05-11T13:15:58.565Z,5.75
2019-05-11T13:18:28.028Z,5.37
2019-05-11T13:20:58.633Z,5.70
2019-05-11T13:23:28.713Z,4.85
2019-05-11T13:25:58.558Z,5.40
2019-05-11T13:28:28.398Z,4.80
2019-05-11T13:30:57.914Z,5.40
2019-05-11T13:33:27.972Z,4.95
2019-05-11T13:35:57.888Z,5.35
2019-05-11T13:38:28.281Z,5.33
2019-05-11T13:40:59.015Z,5.65
2019-05-11T13:43:28.109Z,5.70
2019-05-11T13:45:58.366Z,5.37
2019-05-11T13:48:28.102Z,5.50
2019-05-11T13:50:58.244Z,4.75
2019-05-11T13:53:27.605Z,5.35
2019-05-11T13:55:58.525Z,5.20
2019-05-11T13:58:27.762Z,5.17
2019-05-11T14:00:58.491Z,5.70
2019-05-11T14:03:27.651Z,5.72
2019-05-11T14:05:58.220Z,6.00
2019-05-11T14:08:27.818Z,5.35
2019-05-11T14:10:58.022Z,5.28
2019-05-11T14:13:28.647Z,6.00
2019-05-11T14:15:58.740Z,5.83
2019-05-11T14:18:28.154Z,5.22
2019-05-11T14:20:58.619Z,5.10
2019-05-11T14:23:30.797Z,5.47
2019-05-11T14:25:57.806Z,5.65
2019-05-11T14:28:28.496Z,5.90
2019-05-11T14:30:57.949Z,5.60
2019-05-11T14:33:28.259Z,6.10
2019-05-11T14:35:57.888Z,5.55
2019-05-11T14:38:28.228Z,5.58
2019-05-11T14:40:58.620Z,5.55
2019-05-11T14:43:27.790Z,5.80
2019-05-11T14:45:57.780Z,5.65
2019-05-11T14:48:29.417Z,4.90
2019-05-11T14:50:59.268Z,5.62
2019-05-11T14:53:28.397Z,5.33
2019-05-11T14:55:58.510Z,5.70
2019-05-11T14:58:28.121Z,5.15
2019-05-11T15:00:58.303Z,5.00
2019-05-11T15:03:28.746Z,5.17
2019-05-11T15:05:58.293Z,7.00
2019-05-11T15:08:28.712Z,4.47
2019-05-11T15:10:57.741Z,5.45
2019-05-11T15:13:28.657Z,4.40
2019-05-11T15:15:58.608Z,4.85
2019-05-11T15:18:36.040Z,5.03
2019-05-11T15:20:58.070Z,5.17
2019-05-11T15:23:28.518Z,5.25
2019-05-11T15:25:58.639Z,5.40
2019-05-11T15:28:28.531Z,5.33
2019-05-11T15:30:58.684Z,4.95
2019-05-11T15:33:27.953Z,5.20
2019-05-11T15:35:58.326Z,6.15
2019-05-11T15:38:28.412Z,5.65
2019-05-11T15:40:57.933Z,5.45
2019-05-11T15:43:28.272Z,5.60
2019-05-11T15:45:57.905Z,6.20
2019-05-11T15:48:26.925Z,6.58
2019-05-11T15:50:57.693Z,6.90
2019-05-11T15:53:25.899Z,9.08
2019-05-11T15:55:54.547Z,7.78
2019-05-11T15:58:23.217Z,7.60
2019-05-11T16:00:51.883Z,6.55
2019-05-11T16:03:20.577Z,7.75
2019-05-11T16:05:49.301Z,6.37
2019-05-11T16:08:18.814Z,7.37
2019-05-11T16:10:48.831Z,6.35
2019-05-11T16:13:18.229Z,6.22
2019-05-11T16:15:47.716Z,6.75
2019-05-11T16:18:18.694Z,6.00
2019-05-11T16:20:49.913Z,6.17
2019-05-11T16:23:17.493Z,5.00
2019-05-11T16:25:48.848Z,5.83
2019-05-11T16:28:19.277Z,5.15
2019-05-11T16:30:48.503Z,7.17
2019-05-11T16:33:17.991Z,6.70
2019-05-11T16:35:49.015Z,6.20
2019-05-11T16:38:18.872Z,7.25
2019-05-11T16:40:48.115Z,5.83
2019-05-11T16:43:19.135Z,6.47
2019-05-11T16:45:50.713Z,7.55
2019-05-11T16:48:20.212Z,7.05
2019-05-11T16:50:48.884Z,7.65
2019-05-11T16:53:18.171Z,6.85
2019-05-11T16:55:48.664Z,6.97
2019-05-11T16:58:19.914Z,6.22
2019-05-11T17:00:48.945Z,6.08
2019-05-11T17:03:18.194Z,6.75
2019-05-11T17:05:48.431Z,6.25
2019-05-11T17:08:18.791Z,6.83
2019-05-11T17:10:59.156Z,5.85
2019-05-11T17:13:28.152Z,6.30
2019-05-11T17:15:58.249Z,6.58
2019-05-11T17:18:28.397Z,5.83
2019-05-11T17:20:58.472Z,5.72
2019-05-11T17:23:30.946Z,5.87
2019-05-11T17:25:58.311Z,6.20
2019-05-11T17:28:27.005Z,5.90
2019-05-11T17:30:55.671Z,6.67
2019-05-11T17:33:24.462Z,5.40
2019-05-11T17:35:53.151Z,5.70
2019-05-11T17:38:21.859Z,5.55
2019-05-11T17:40:50.601Z,5.30
2019-05-11T17:43:19.289Z,5.50
2019-05-11T17:45:48.129Z,9.28
2019-05-11T17:48:17.876Z,5.60
2019-05-11T17:50:46.884Z,6.62
2019-05-11T17:53:17.734Z,6.45
2019-05-11T17:55:48.623Z,6.40
2019-05-11T17:58:18.551Z,6.72
2019-05-11T18:00:48.107Z,10.03
2019-05-11T18:03:17.032Z,6.10
2019-05-11T18:05:48.398Z,4.08
2019-05-11T18:08:21.874Z,4.47
2019-05-11T18:10:48.050Z,5.30
2019-05-11T18:13:16.751Z,3.62
2019-05-11T18:15:50.222Z,4.17
2019-05-11T18:18:19.133Z,3.45
2019-05-11T18:20:50.997Z,7.08
2019-05-11T18:23:20.286Z,3.92
2019-05-11T18:25:49.070Z,4.37
2019-05-11T18:28:18.189Z,4.67
2019-05-11T18:30:47.975Z,3.92
2019-05-11T18:33:18.817Z,3.02
2019-05-11T18:35:47.315Z,3.30
2019-05-11T18:38:17.800Z,3.50
2019-05-11T18:40:48.479Z,3.90
2019-05-11T18:43:18.682Z,3.55
2019-05-11T18:45:48.855Z,5.15
2019-05-11T18:48:18.546Z,4.83
2019-05-11T18:50:49.106Z,5.25
2019-05-11T18:53:18.634Z,4.83
2019-05-11T18:55:48.730Z,5.08
2019-05-11T18:58:18.395Z,4.22
2019-05-11T19:00:48.750Z,4.80
2019-05-11T19:03:19.299Z,5.35
2019-05-11T19:05:48.240Z,5.12
2019-05-11T19:08:18.955Z,6.05
2019-05-11T19:10:48.733Z,5.62
2019-05-11T19:13:17.893Z,5.47
2019-05-11T19:15:48.708Z,6.22
2019-05-11T19:18:17.095Z,5.20
2019-05-11T19:20:49.123Z,5.35
2019-05-11T19:23:16.121Z,5.33
2019-05-11T19:25:44.863Z,5.28
2019-05-11T19:28:13.651Z,5.22
2019-05-11T19:30:42.317Z,5.17
2019-05-11T19:33:11.355Z,5.17
2019-05-11T19:35:40.021Z,5.33
2019-05-11T19:38:08.845Z,5.58
2019-05-11T19:40:38.439Z,6.30
2019-05-11T19:43:08.215Z,5.87
2019-05-11T19:45:38.419Z,4.83
2019-05-11T19:48:08.406Z,7.03
2019-05-11T19:50:40.337Z,6.75
2019-05-11T19:53:08.387Z,6.50
2019-05-11T19:55:37.377Z,6.58
2019-05-11T19:58:06.039Z,5.95
2019-05-11T20:00:34.703Z,6.75
2019-05-11T20:03:03.346Z,6.67
2019-05-11T20:05:31.999Z,6.05
2019-05-11T20:08:00.655Z,6.53
2019-05-11T20:10:29.303Z,5.00
2019-05-11T20:12:58.773Z,3.33
2019-05-11T20:15:27.854Z,1.90
2019-05-11T20:17:58.490Z,1.15
2019-05-11T20:20:28.429Z,1.45
2019-05-11T20:22:58.489Z,0.70
2019-05-11T20:25:28.784Z,1.20
2019-05-11T20:27:58.471Z,1.22
2019-05-11T20:30:27.339Z,1.32
2019-05-11T20:32:56.049Z,1.87
2019-05-11T20:35:24.710Z,1.17
2019-05-11T20:37:53.362Z,0.95
2019-05-11T20:40:22.017Z,0.85
2019-05-11T20:42:50.671Z,0.75
2019-05-11T20:45:19.473Z,0.85
2019-05-11T20:47:48.969Z,0.47
2019-05-11T20:50:18.534Z,0.55
2019-05-11T20:52:48.119Z,1.00
2019-05-11T20:55:18.258Z,1.00
2019-05-11T20:57:48.501Z,1.60
2019-05-11T21:00:19.098Z,2.10
2019-05-11T21:02:48.860Z,3.35
2019-05-11T21:05:18.326Z,4.15
2019-05-11T21:07:47.227Z,3.92
2019-05-11T21:10:16.931Z,5.45
2019-05-11T21:12:45.670Z,4.42
2019-05-11T21:15:15.135Z,5.47
2019-05-11T21:17:43.790Z,5.62
2019-05-11T21:20:12.977Z,5.03
2019-05-11T21:22:41.617Z,5.05
2019-05-11T21:25:10.803Z,5.83
2019-05-11T21:27:39.460Z,5.00
2019-05-11T21:30:09.862Z,5.08
2019-05-11T21:32:39.719Z,4.33
2019-05-11T21:35:09.010Z,5.10
2019-05-11T21:37:38.714Z,4.70
2019-05-11T21:40:09.349Z,4.65
2019-05-11T21:42:39.485Z,5.10
2019-05-11T21:45:10.190Z,4.50
2019-05-11T21:47:39.540Z,4.25
2019-05-11T21:50:10.210Z,5.28
2019-05-11T21:52:39.020Z,4.35
2019-05-11T21:55:09.551Z,5.30
2019-05-11T21:57:38.742Z,5.08
2019-05-11T22:00:09.289Z,5.65
2019-05-11T22:02:38.716Z,4.47
2019-05-11T22:05:08.731Z,4.70
2019-05-11T22:07:38.866Z,4.60
2019-05-11T22:10:09.250Z,3.80
2019-05-11T22:12:40.046Z,4.22
2019-05-11T22:15:09.829Z,3.72
2019-05-11T22:17:39.621Z,3.62
2019-05-11T22:20:09.540Z,3.58
2019-05-11T22:22:39.008Z,2.70
2019-05-11T22:25:10.061Z,3.02
2019-05-11T22:27:39.138Z,1.85
2019-05-11T22:30:08.928Z,1.98
2019-05-11T22:32:38.692Z,1.98
2019-05-11T22:35:09.899Z,1.95
2019-05-11T22:37:39.041Z,1.67
2019-05-11T22:40:08.727Z,1.60
2019-05-11T22:42:38.077Z,1.07
2019-05-11T22:45:10.306Z,0.90
2019-05-11T22:47:39.694Z,1.15
2019-05-11T22:50:10.084Z,0.62
2019-05-11T22:52:40.265Z,0.50
2019-05-11T22:55:11.758Z,0.50
2019-05-11T22:57:40.798Z,0.82
2019-05-11T23:00:10.748Z,0.50
2019-05-11T23:02:39.519Z,0.60
2019-05-11T23:05:08.962Z,0.57
2019-05-11T23:07:41.420Z,0.45
2019-05-11T23:10:10.614Z,0.62
2019-05-11T23:12:39.186Z,0.95
2019-05-11T23:15:10.235Z,0.93
2019-05-11T23:17:38.989Z,0.45
2019-05-11T23:20:08.681Z,0.40
2019-05-11T23:22:51.195Z,0.42
2019-05-11T23:25:09.355Z,1.12
2019-05-11T23:27:39.296Z,0.30
2019-05-11T23:30:08.896Z,0.40
2019-05-11T23:32:37.928Z,0.57
2019-05-11T23:35:08.397Z,0.30
2019-05-11T23:37:42.612Z,0.30
2019-05-11T23:40:11.875Z,0.50
2019-05-11T23:42:40.498Z,0.20
2019-05-11T23:45:09.855Z,0.25
2019-05-11T23:47:39.424Z,0.20
2019-05-11T23:50:08.689Z,0.30
2019-05-11T23:52:38.234Z,0.30
2019-05-11T23:55:08.536Z,0.20
2019-05-11T23:57:38.073Z,0.50
